Time;durP1;ratioP1;P1;durP2;ratioP2;P2;SDS_P1;SDS_P2;PMS_P1;PMS_P2;Temp;Humidity;BMP_temperature;BMP_pressure;BME280_temperature;BME280_humidity;BME280_pressure;Samples;Min_cycle;Max_cycle;Signal;HPM_P1;HPM_P2
2022/05/10 00:01:51;;;;;;;12.07;6.70;;;20.70;81.20;;;;;;4975613;28;20642;-88
2022/05/10 00:04:18;;;;;;;14.57;7.23;;;20.50;81.80;;;;;;4976353;28;20173;-88
2022/05/10 00:06:46;;;;;;;9.60;6.77;;;20.40;82.20;;;;;;4976606;28;20178;-87
2022/05/10 00:09:13;;;;;;;11.37;6.77;;;20.40;82.90;;;;;;4976166;28;20217;-88
2022/05/10 00:11:39;;;;;;;12.40;6.50;;;20.40;83.20;;;;;;4976318;28;20178;-88
2022/05/10 00:14:05;;;;;;;12.20;6.73;;;20.40;83.00;;;;;;4976197;28;20174;-88
2022/05/10 00:16:33;;;;;;;9.03;6.80;;;20.40;83.20;;;;;;4976128;28;20252;-87
2022/05/10 00:18:59;;;;;;;11.83;7.20;;;20.50;83.00;;;;;;4976241;28;20189;-88
2022/05/10 00:21:25;;;;;;;9.63;6.50;;;20.70;82.60;;;;;;4976303;28;20185;-87
2022/05/10 00:23:51;;;;;;;14.70;7.17;;;20.60;83.30;;;;;;4978322;28;20657;-88
2022/05/10 00:26:17;;;;;;;13.63;7.30;;;20.70;83.10;;;;;;4979932;28;20631;-88
2022/05/10 00:28:43;;;;;;;13.50;7.73;;;20.60;83.70;;;;;;4979690;28;20206;-88
2022/05/10 00:31:10;;;;;;;14.70;6.37;;;20.50;83.50;;;;;;4979639;28;20582;-88
2022/05/10 00:33:37;;;;;;;12.83;7.30;;;20.70;84.20;;;;;;4979841;28;20181;-88
2022/05/10 00:36:04;;;;;;;11.33;7.07;;;20.60;84.00;;;;;;4980003;28;20261;-87
2022/05/10 00:38:33;;;;;;;15.07;7.50;;;20.40;85.00;;;;;;4979547;28;20205;-88
2022/05/10 00:41:11;;;;;;;14.37;7.40;;;20.40;85.00;;;;;;4979552;28;20265;-88
2022/05/10 00:43:42;;;;;;;14.50;7.30;;;20.30;85.30;;;;;;4979565;28;20228;-87
2022/05/10 00:46:22;;;;;;;13.97;7.20;;;20.40;85.20;;;;;;4979557;28;20185;-88
2022/05/10 00:48:54;;;;;;;10.80;7.30;;;20.40;85.70;;;;;;4979054;28;20240;-88
2022/05/10 00:51:34;;;;;;;14.30;7.20;;;20.10;87.00;;;;;;4979409;28;20197;-87
2022/05/10 00:54:10;;;;;;;11.10;7.20;;;20.00;87.60;;;;;;4979594;28;20220;-86
2022/05/10 00:56:42;;;;;;;15.80;7.47;;;19.90;88.20;;;;;;4979478;28;20217;-88
2022/05/10 00:59:14;;;;;;;14.07;7.53;;;20.10;87.00;;;;;;4979161;28;20189;-88
2022/05/10 01:01:43;;;;;;;11.00;6.57;;;20.40;86.80;;;;;;4979157;28;20178;-87
2022/05/10 01:04:12;;;;;;;12.73;7.20;;;20.30;85.70;;;;;;4978848;28;20182;-88
2022/05/10 01:06:52;;;;;;;12.07;6.93;;;20.30;86.40;;;;;;4979381;28;20189;-88
2022/05/10 01:09:48;;;;;;;14.27;6.90;;;20.30;86.30;;;;;;4979258;28;20174;-87
2022/05/10 01:12:33;;;;;;;13.60;6.93;;;20.40;86.30;;;;;;4978611;28;20181;-87
2022/05/10 01:15:06;;;;;;;15.17;7.80;;;20.30;86.90;;;;;;4978596;28;20669;-87
2022/05/10 01:17:33;;;;;;;13.97;7.23;;;20.30;87.30;;;;;;4979096;28;20578;-88
2022/05/10 01:19:59;;;;;;;12.53;7.10;;;20.20;87.90;;;;;;4978993;28;20188;-88
2022/05/10 01:23:01;;;;;;;11.87;6.90;;;20.00;88.90;;;;;;4978617;28;20182;-88
2022/05/10 01:25:52;;;;;;;11.10;7.37;;;20.10;89.30;;;;;;4978859;28;20228;-87
2022/05/10 01:28:36;;;;;;;11.40;6.77;;;19.90;90.50;;;;;;4978506;28;20205;-88
2022/05/10 01:31:12;;;;;;;14.50;6.93;;;19.90;90.50;;;;;;4978852;28;20197;-87
2022/05/10 01:33:47;;;;;;;11.73;6.67;;;19.80;90.80;;;;;;4978213;28;20178;-88
2022/05/10 01:36:20;;;;;;;15.67;7.73;;;19.80;90.70;;;;;;4978486;28;20221;-87
2022/05/10 01:38:57;;;;;;;13.27;7.13;;;19.80;90.90;;;;;;4978947;28;20227;-87
2022/05/10 01:41:54;;;;;;;11.40;7.23;;;19.90;90.80;;;;;;4978608;28;20264;-88
2022/05/10 01:44:52;;;;;;;12.10;7.00;;;20.10;90.70;;;;;;4959116;28;20189;-87
2022/05/10 01:47:30;;;;;;;10.90;7.47;;;20.00;90.30;;;;;;4975568;28;20229;-88
2022/05/10 01:50:22;;;;;;;14.17;7.60;;;20.20;89.40;;;;;;4975161;28;20524;-88
2022/05/10 01:53:05;;;;;;;13.03;7.33;;;20.10;89.30;;;;;;4978131;28;20654;-86
2022/05/10 01:55:43;;;;;;;12.93;8.10;;;20.20;87.40;;;;;;4978257;28;20237;-87
2022/05/10 01:58:16;;;;;;;18.10;7.93;;;20.20;86.60;;;;;;4978260;28;20212;-87
2022/05/10 02:00:47;;;;;;;16.47;8.53;;;20.40;85.40;;;;;;4978278;28;20196;-88
2022/05/10 02:03:20;;;;;;;15.40;8.00;;;20.50;84.60;;;;;;4977940;28;20181;-87
2022/05/10 02:06:08;;;;;;;16.90;8.13;;;20.60;83.60;;;;;;4978284;28;20311;-87
2022/05/10 02:08:56;;;;;;;13.93;7.90;;;20.50;84.00;;;;;;4978165;28;20227;-86
2022/05/10 02:11:23;;;;;;;11.83;7.87;;;20.70;83.20;;;;;;4977729;28;20235;-87
2022/05/10 02:14:12;;;;;;;15.33;8.13;;;20.40;84.10;;;;;;4978340;28;20177;-87
2022/05/10 02:16:52;;;;;;;17.03;7.77;;;20.40;83.80;;;;;;4977733;28;20260;-87
2022/05/10 02:19:23;;;;;;;15.63;8.33;;;20.30;84.10;;;;;;4977968;28;20188;-86
2022/05/10 02:22:03;;;;;;;17.33;8.47;;;20.50;83.00;;;;;;4977784;28;20268;-87
2022/05/10 02:24:35;;;;;;;14.50;7.60;;;20.60;82.70;;;;;;4978029;28;20190;-87
2022/05/10 02:27:10;;;;;;;15.87;9.33;;;20.60;83.00;;;;;;4977547;28;20205;-87
2022/05/10 02:29:50;;;;;;;12.13;7.13;;;20.60;82.60;;;;;;4978097;28;20188;-87
2022/05/10 02:35:35;;;;;;;11.00;7.13;;;20.40;83.30;;;;;;4953839;28;20217;-87
2022/05/10 02:38:01;;;;;;;12.27;6.83;;;20.20;84.30;;;;;;4938255;29;20504;-87
2022/05/10 02:40:27;;;;;;;10.80;6.70;;;20.10;85.00;;;;;;4944740;28;20208;-88
2022/05/10 02:42:52;;;;;;;9.67;6.27;;;20.20;84.60;;;;;;4968903;28;20181;-87
2022/05/10 02:45:18;;;;;;;12.57;6.33;;;20.20;84.60;;;;;;4977575;28;20602;-87
2022/05/10 02:47:46;;;;;;;11.50;6.80;;;20.30;84.20;;;;;;4977558;28;20527;-87
2022/05/10 02:50:29;;;;;;;9.53;6.70;;;20.40;83.90;;;;;;4977539;28;20240;-87
2022/05/10 02:52:55;;;;;;;10.33;6.00;;;20.60;83.10;;;;;;4978026;28;20558;-88
2022/05/10 02:55:33;;;;;;;11.37;5.93;;;20.50;83.40;;;;;;4979803;28;20621;-88
2022/05/10 02:58:04;;;;;;;8.43;5.80;;;20.30;84.30;;;;;;4978751;28;20188;-87
2022/05/10 03:00:31;;;;;;;9.33;5.67;;;20.30;84.20;;;;;;4978788;28;20664;-87
2022/05/10 03:03:05;;;;;;;9.47;5.27;;;20.60;82.90;;;;;;4976998;28;20173;-86
2022/05/10 03:05:31;;;;;;;12.87;5.93;;;20.70;82.20;;;;;;4977332;28;20173;-87
2022/05/10 03:07:56;;;;;;;9.87;5.47;;;20.50;83.00;;;;;;4977142;28;20235;-87
2022/05/10 03:10:23;;;;;;;8.17;5.47;;;20.50;83.20;;;;;;4994045;28;20187;-88
2022/05/10 03:12:49;;;;;;;12.00;5.90;;;20.50;83.20;;;;;;4976757;28;20274;-87
2022/05/10 03:15:15;;;;;;;9.30;6.00;;;20.50;83.20;;;;;;4977039;28;20271;-87
2022/05/10 03:17:40;;;;;;;8.33;5.33;;;20.30;83.90;;;;;;4976983;28;20191;-88
2022/05/10 03:20:06;;;;;;;13.37;5.23;;;20.40;84.00;;;;;;4976913;28;20197;-87
2022/05/10 03:22:32;;;;;;;7.87;5.23;;;20.40;83.70;;;;;;4976457;28;20193;-87
2022/05/10 03:24:57;;;;;;;8.93;5.23;;;20.40;84.00;;;;;;4976845;28;20185;-87
2022/05/10 03:27:23;;;;;;;9.47;5.40;;;20.30;84.70;;;;;;4976759;28;20556;-87
2022/05/10 03:29:49;;;;;;;7.73;5.20;;;20.30;84.70;;;;;;4977074;28;20185;-86
2022/05/10 03:32:14;;;;;;;8.07;5.37;;;20.20;85.30;;;;;;4976247;28;20178;-87
2022/05/10 03:34:55;;;;;;;11.33;4.90;;;20.20;85.00;;;;;;4977051;28;20219;-87
2022/05/10 03:37:21;;;;;;;12.00;5.47;;;20.30;84.40;;;;;;4976858;28;20645;-87
2022/05/10 03:39:47;;;;;;;8.57;5.27;;;20.40;84.00;;;;;;4976582;28;20532;-87
2022/05/10 03:42:13;;;;;;;12.53;6.77;;;20.30;85.10;;;;;;4976181;28;20192;-87
2022/05/10 03:44:39;;;;;;;9.13;5.50;;;20.30;83.90;;;;;;4976612;28;20201;-87
2022/05/10 03:47:08;;;;;;;13.67;5.57;;;20.30;85.10;;;;;;4976760;28;20216;-87
2022/05/10 03:49:33;;;;;;;11.77;6.17;;;20.30;84.40;;;;;;4976567;28;20189;-87
2022/05/10 03:51:59;;;;;;;12.43;6.07;;;20.40;83.40;;;;;;4976693;28;20253;-87
2022/05/10 03:54:25;;;;;;;11.73;5.77;;;20.40;83.40;;;;;;4976131;28;20204;-88
2022/05/10 03:56:51;;;;;;;10.90;5.77;;;20.60;83.00;;;;;;4976922;28;20189;-87
2022/05/10 03:59:18;;;;;;;8.90;5.40;;;20.60;82.90;;;;;;4980399;28;20243;-88
2022/05/10 04:01:45;;;;;;;14.50;5.87;;;20.60;83.20;;;;;;4980070;28;20216;-87
2022/05/10 04:04:10;;;;;;;15.63;6.47;;;20.60;82.40;;;;;;4980377;28;20188;-87
2022/05/10 04:06:36;;;;;;;12.43;5.20;;;20.70;82.30;;;;;;4980442;28;20188;-87
2022/05/10 04:09:02;;;;;;;11.50;6.13;;;20.60;82.40;;;;;;4980506;28;20189;-87
2022/05/10 04:11:28;;;;;;;12.20;6.60;;;20.70;81.90;;;;;;4980206;28;20292;-87
2022/05/10 04:13:53;;;;;;;10.83;6.40;;;20.70;81.90;;;;;;4979940;28;20284;-87
2022/05/10 04:16:19;;;;;;;13.40;6.23;;;20.90;81.70;;;;;;4980249;28;20308;-87
2022/05/10 04:18:45;;;;;;;15.50;6.60;;;20.70;82.30;;;;;;4980088;28;20193;-88
2022/05/10 04:21:10;;;;;;;11.77;6.30;;;20.60;83.50;;;;;;4979924;28;20575;-87
2022/05/10 04:23:36;;;;;;;15.47;6.47;;;20.50;83.20;;;;;;4979706;28;20652;-87
2022/05/10 04:26:07;;;;;;;13.43;6.80;;;20.60;82.90;;;;;;4997317;28;20238;-87
2022/05/10 04:28:35;;;;;;;19.23;6.70;;;20.90;82.20;;;;;;4979725;28;20201;-87
2022/05/10 04:31:01;;;;;;;11.97;6.87;;;20.80;82.40;;;;;;4979912;28;20247;-87
2022/05/10 04:33:27;;;;;;;12.43;6.90;;;20.60;83.10;;;;;;4979544;28;20622;-87
2022/05/10 04:35:53;;;;;;;12.10;7.23;;;20.60;83.40;;;;;;4979670;28;20213;-87
2022/05/10 04:38:19;;;;;;;12.50;7.13;;;20.50;84.20;;;;;;4978797;28;20188;-87
2022/05/10 04:43:38;;;;;;;13.53;7.20;;;20.50;85.00;;;;;;4961865;28;20244;-87
2022/05/10 04:46:05;;;;;;;14.77;7.70;;;20.60;84.60;;;;;;4976382;28;20182;-87
2022/05/10 04:48:30;;;;;;;15.07;8.23;;;20.90;84.10;;;;;;4979393;28;20234;-86
2022/05/10 04:50:56;;;;;;;16.13;8.00;;;20.80;84.30;;;;;;4978923;28;20189;-87
2022/05/10 04:53:22;;;;;;;14.67;8.17;;;20.80;84.60;;;;;;4978518;28;20469;-87
2022/05/10 04:55:50;;;;;;;17.27;8.10;;;20.80;84.90;;;;;;4979138;28;20667;-87
2022/05/10 04:58:16;;;;;;;17.40;7.67;;;20.70;85.50;;;;;;4979579;28;20263;-87
2022/05/10 05:00:41;;;;;;;15.30;8.10;;;20.60;86.10;;;;;;4978555;28;20673;-87
2022/05/10 05:03:07;;;;;;;16.70;8.10;;;20.60;86.20;;;;;;4977700;28;20188;-87
2022/05/10 05:05:33;;;;;;;16.33;8.27;;;20.80;86.20;;;;;;4979171;28;20224;-87
2022/05/10 05:07:58;;;;;;;14.93;8.17;;;20.90;85.60;;;;;;4978513;28;20272;-87
2022/05/10 05:10:24;;;;;;;14.63;7.60;;;21.00;85.50;;;;;;4977923;28;20182;-87
2022/05/10 05:12:50;;;;;;;15.67;7.90;;;21.00;85.70;;;;;;4979532;28;20177;-87
2022/05/10 05:15:17;;;;;;;16.30;8.17;;;20.90;86.10;;;;;;4979151;28;20271;-88
2022/05/10 05:17:42;;;;;;;13.67;7.57;;;20.90;86.30;;;;;;4979300;28;20208;-87
2022/05/10 05:20:09;;;;;;;14.80;7.13;;;21.00;86.20;;;;;;4979228;28;20228;-86
2022/05/10 05:22:34;;;;;;;12.40;7.33;;;21.10;86.10;;;;;;4978292;28;20189;-87
2022/05/10 05:25:00;;;;;;;13.03;7.70;;;21.10;85.80;;;;;;4978529;28;20182;-87
2022/05/10 05:27:25;;;;;;;13.27;7.10;;;21.10;86.20;;;;;;4995614;28;20202;-87
2022/05/10 05:29:52;;;;;;;15.40;7.00;;;21.20;86.00;;;;;;4978702;28;20181;-87
2022/05/10 05:32:21;;;;;;;13.73;6.97;;;21.30;85.70;;;;;;4977820;28;20186;-88
2022/05/10 05:34:46;;;;;;;11.97;7.23;;;21.30;85.90;;;;;;4977729;28;20579;-85
2022/05/10 05:39:57;;;;;;;14.63;7.03;;;21.60;85.00;;;;;;4995675;28;20177;-85
2022/05/10 05:42:22;;;;;;;9.93;6.00;;;21.70;84.00;;;;;;4978195;28;20634;-88
2022/05/10 05:44:48;;;;;;;11.07;5.87;;;21.90;83.00;;;;;;4978119;28;20193;-87
2022/05/10 05:47:14;;;;;;;11.27;6.10;;;21.90;82.60;;;;;;4978334;28;20181;-87
2022/05/10 05:49:39;;;;;;;7.87;5.10;;;21.80;83.00;;;;;;4978215;28;20229;-88
2022/05/10 05:52:05;;;;;;;9.93;6.30;;;21.50;83.80;;;;;;4978137;28;20199;-87
2022/05/10 05:54:33;;;;;;;10.53;6.30;;;21.40;84.70;;;;;;4978217;28;20193;-84
2022/05/10 06:41:37;;;;;;;;;;;;;;;;;;;;;
2022/05/10 17:12:39;;;;;;;5.53;2.80;;;26.90;65.90;;;;;;6265400;22;20582;-96
2022/05/10 17:15:14;;;;;;;4.07;2.80;;;26.90;65.90;;;;;;6282021;22;20150;-94
2022/05/10 17:29:25;;;;;;;4.83;2.40;;;25.80;68.60;;;;;;6226335;22;20176;-96
2022/05/10 18:31:01;;;;;;;5.60;1.37;;;24.60;62.70;;;;;;6292316;22;20638;-91
2022/05/10 20:32:29;;;;;;;7.67;1.77;;;23.10;66.50;;;;;;6275403;22;20735;-90
2022/05/10 20:34:55;;;;;;;2.67;1.60;;;22.90;66.80;;;;;;6248057;22;20161;-90
2022/05/10 20:37:21;;;;;;;6.63;1.97;;;22.90;67.10;;;;;;6248019;22;20146;-90
2022/05/10 20:39:46;;;;;;;3.23;1.60;;;22.80;67.30;;;;;;6248004;22;20161;-89
2022/05/10 20:46:23;;;;;;;3.83;1.77;;;22.80;67.40;;;;;;6171012;23;20149;-91
2022/05/10 20:49:01;;;;;;;2.83;1.83;;;22.80;67.60;;;;;;6247029;22;20445;-92
2022/05/10 20:51:30;;;;;;;8.63;2.07;;;22.80;67.50;;;;;;6247796;22;20637;-91
2022/05/10 21:00:41;;;;;;;3.13;1.30;;;22.50;67.90;;;;;;6118747;23;20161;-90
2022/05/10 21:03:09;;;;;;;2.97;1.50;;;22.40;68.50;;;;;;6271046;22;20248;-90
2022/05/10 21:09:47;;;;;;;3.57;1.80;;;22.50;68.00;;;;;;6151250;23;20187;-93
2022/05/10 21:12:45;;;;;;;;;;;;;;;;;;;;;
2022/05/10 21:18:46;;;;;;;2.87;1.80;;;22.20;69.30;;;;;;6209001;23;20193;-90
2022/05/10 21:21:13;;;;;;;3.60;2.17;;;22.10;69.90;;;;;;6218581;22;20238;-91
2022/05/10 21:23:40;;;;;;;5.40;1.60;;;22.00;70.30;;;;;;6247998;22;20178;-90
2022/05/10 21:26:06;;;;;;;3.53;1.40;;;22.00;70.50;;;;;;6247599;22;20177;-90
2022/05/10 21:28:31;;;;;;;4.17;1.93;;;22.00;70.70;;;;;;6272635;22;20203;-90
2022/05/10 21:31:15;;;;;;;2.53;1.40;;;22.00;70.90;;;;;;6283720;22;20152;-91
2022/05/10 21:33:43;;;;;;;2.83;1.40;;;21.80;71.50;;;;;;6278624;22;20596;-91
2022/05/10 21:36:09;;;;;;;3.40;1.60;;;21.80;71.70;;;;;;6279115;22;20577;-91
2022/05/10 21:38:35;;;;;;;2.87;1.60;;;21.70;71.70;;;;;;6281650;22;20244;-90
2022/05/10 21:41:02;;;;;;;5.80;1.83;;;21.80;72.00;;;;;;6281383;22;20157;-88
2022/05/10 21:43:28;;;;;;;2.93;1.50;;;21.80;72.30;;;;;;6281668;22;20180;-90
2022/05/10 21:45:56;;;;;;;4.00;1.77;;;21.80;72.70;;;;;;6280990;22;20148;-90
2022/05/10 21:48:24;;;;;;;2.43;1.50;;;21.90;72.80;;;;;;6280951;22;20153;-90
2022/05/10 21:50:55;;;;;;;4.17;1.80;;;21.90;73.10;;;;;;6281128;22;20153;-88
2022/05/10 21:53:22;;;;;;;4.63;1.83;;;21.90;73.30;;;;;;6280639;22;20145;-88
2022/05/10 21:55:49;;;;;;;3.63;1.83;;;21.80;73.50;;;;;;6279313;22;20214;-89
2022/05/10 21:58:15;;;;;;;3.00;1.90;;;21.60;74.10;;;;;;6280480;22;20149;-88
2022/05/10 22:00:43;;;;;;;4.47;1.30;;;21.60;74.20;;;;;;6280772;22;20150;-90
2022/05/10 22:03:13;;;;;;;5.97;1.70;;;21.60;74.30;;;;;;6281107;22;20248;-87
2022/05/10 22:05:39;;;;;;;3.20;1.67;;;21.60;74.40;;;;;;6280603;22;20591;-90
2022/05/10 22:08:08;;;;;;;5.93;1.50;;;21.60;74.70;;;;;;6280704;22;20179;-90
2022/05/10 22:10:33;;;;;;;2.00;1.40;;;21.70;74.70;;;;;;6280439;22;20145;-89
2022/05/10 22:12:59;;;;;;;4.83;1.70;;;21.80;74.20;;;;;;6280816;22;20156;-90
2022/05/10 22:15:28;;;;;;;2.47;1.37;;;21.70;74.50;;;;;;6280692;22;20657;-90
2022/05/10 22:17:55;;;;;;;3.47;1.60;;;21.60;75.20;;;;;;6281139;22;20145;-90
2022/05/10 22:20:21;;;;;;;2.00;1.10;;;21.40;75.70;;;;;;6281080;22;20164;-90
2022/05/10 22:22:48;;;;;;;2.37;1.30;;;21.10;77.00;;;;;;6280408;22;20176;-90
2022/05/10 22:25:14;;;;;;;3.63;1.03;;;21.00;77.30;;;;;;6281463;22;20158;-90
2022/05/10 22:27:40;;;;;;;1.50;1.20;;;20.90;77.70;;;;;;6275388;22;20160;-90
2022/05/10 22:30:08;;;;;;;1.57;0.80;;;21.00;77.60;;;;;;6275749;22;20230;-90
2022/05/10 22:32:34;;;;;;;3.13;1.17;;;21.10;77.60;;;;;;6275741;22;20147;-89
2022/05/10 22:35:00;;;;;;;2.63;1.20;;;21.00;77.70;;;;;;6275483;22;20149;-90
2022/05/10 22:37:25;;;;;;;3.20;1.80;;;21.10;77.60;;;;;;6275412;22;20586;-90
2022/05/10 22:39:51;;;;;;;3.03;1.30;;;21.10;77.30;;;;;;6275329;22;20168;-90
2022/05/10 22:42:17;;;;;;;2.27;1.20;;;21.00;77.60;;;;;;6275095;22;20158;-90
2022/05/10 22:44:42;;;;;;;3.77;1.33;;;21.10;77.40;;;;;;6275616;22;20264;-90
2022/05/10 22:47:08;;;;;;;3.23;1.50;;;21.10;77.40;;;;;;6275519;22;20173;-90
2022/05/10 22:49:36;;;;;;;3.17;1.37;;;21.20;77.40;;;;;;6275338;22;20164;-90
2022/05/10 22:52:03;;;;;;;2.17;1.23;;;21.20;77.00;;;;;;6275739;22;20184;-90
2022/05/10 22:54:28;;;;;;;5.43;1.30;;;21.30;76.90;;;;;;6276036;22;20163;-90
2022/05/10 22:56:54;;;;;;;1.97;1.40;;;21.30;76.80;;;;;;6275760;22;20150;-90
2022/05/10 22:59:20;;;;;;;1.50;1.13;;;21.20;77.00;;;;;;6275875;22;20148;-90
2022/05/10 23:01:46;;;;;;;2.10;1.40;;;21.20;77.10;;;;;;6275583;22;20231;-90
2022/05/10 23:04:13;;;;;;;3.80;1.43;;;21.20;77.10;;;;;;6275837;22;20204;-90
2022/05/10 23:06:39;;;;;;;3.30;1.47;;;21.20;77.30;;;;;;6276036;22;20536;-90
2022/05/10 23:09:05;;;;;;;1.90;1.10;;;21.20;76.90;;;;;;6275721;22;20154;-91
2022/05/10 23:11:31;;;;;;;1.63;1.00;;;21.20;77.00;;;;;;6275325;22;20149;-90
2022/05/10 23:13:57;;;;;;;2.33;1.20;;;21.30;76.90;;;;;;6275586;22;20156;-90
2022/05/10 23:16:22;;;;;;;3.87;1.20;;;21.20;77.30;;;;;;6276262;22;20191;-90
2022/05/10 23:18:49;;;;;;;3.13;1.33;;;21.20;77.30;;;;;;6275252;22;20149;-90
2022/05/10 23:21:15;;;;;;;4.33;2.10;;;21.20;77.20;;;;;;6275792;22;20227;-90
2022/05/10 23:23:40;;;;;;;4.63;1.93;;;21.30;77.20;;;;;;6275879;22;20189;-91
2022/05/10 23:26:06;;;;;;;5.97;1.83;;;21.20;77.60;;;;;;6276929;22;20154;-90
2022/05/10 23:28:32;;;;;;;4.70;2.00;;;21.20;77.80;;;;;;6278027;22;20165;-90
2022/05/10 23:30:58;;;;;;;4.23;1.90;;;21.10;78.10;;;;;;6278042;22;20476;-90
2022/05/10 23:33:24;;;;;;;3.73;1.70;;;21.10;78.40;;;;;;6277820;22;20153;-90
2022/05/10 23:35:50;;;;;;;4.97;1.80;;;20.90;79.20;;;;;;6277546;22;20144;-90
2022/05/10 23:38:16;;;;;;;3.63;1.67;;;21.00;79.00;;;;;;6277566;22;20177;-90
2022/05/10 23:40:41;;;;;;;2.57;1.60;;;21.00;78.90;;;;;;6277703;22;20660;-89
2022/05/10 23:45:52;;;;;;;4.73;1.73;;;21.00;78.60;;;;;;6278992;22;20195;-91
2022/05/10 23:48:19;;;;;;;2.17;1.30;;;20.90;79.00;;;;;;6277131;22;20817;-90
2022/05/10 23:50:47;;;;;;;2.50;1.50;;;20.90;77.60;;;;;;6277539;22;20157;-90
2022/05/10 23:53:15;;;;;;;2.00;1.27;;;20.90;76.90;;;;;;6277097;22;20184;-90
2022/05/10 23:55:43;;;;;;;2.20;1.27;;;20.90;77.40;;;;;;6277852;22;20167;-90
2022/05/10 23:58:12;;;;;;;1.40;1.00;;;20.80;76.40;;;;;;6277529;22;20151;-90
